Plain View, Iowa
Current Conditions -  °F | °C
As of 4:52 PM on Saturday 20 Dec 2014 (Local Time) from KDVN Reporting Station
Haze Haze  
Wind Chill: 26°   Ceiling: 1300
Heat Index: 33°   Visibility: 6mi
Dew Point: 27°   Wind: 8mph
Humidity: 78%   Direction: 150°SSE
Pressure: 30.21"   Gusts: NA
Location:  41.6175°N, 90.7599°W
Report Text: KDVN 202252Z AUTO 15007KT 6SM HZ OVC013 01/M03 A3021 RMK AO2 SLP238 T00061028
Loading
Personal Weather Stations






























Interactive Weather Map New forecast layout! Learn more

10-Day Weather Forecast

Advertisements
Track Severe Weather on mobile